sensor_id;sensor_type;location;lat;lon;timestamp;P1;durP1;ratioP1;P2;durP2;ratioP2
80136;SDS011;69466;55.948;37.484;2023-04-24T00:00:25;20.73;;;7.97;;
80136;SDS011;69466;55.948;37.484;2023-04-24T00:02:51;14.98;;;8.23;;
80136;SDS011;69466;55.948;37.484;2023-04-24T00:05:17;14.05;;;7.00;;
80136;SDS011;69466;55.948;37.484;2023-04-24T00:07:43;14.45;;;8.32;;
80136;SDS011;69466;55.948;37.484;2023-04-24T00:10:10;14.75;;;7.13;;
80136;SDS011;69466;55.948;37.484;2023-04-24T00:12:37;19.65;;;7.68;;
80136;SDS011;69466;55.948;37.484;2023-04-24T00:15:03;12.65;;;6.63;;
80136;SDS011;69466;55.948;37.484;2023-04-24T00:17:30;16.50;;;7.45;;
80136;SDS011;69466;55.948;37.484;2023-04-24T00:19:56;11.07;;;6.25;;
80136;SDS011;69466;55.948;37.484;2023-04-24T00:22:28;14.38;;;6.85;;
80136;SDS011;69466;55.948;37.484;2023-04-24T00:24:54;15.65;;;8.02;;
80136;SDS011;69466;55.948;37.484;2023-04-24T00:27:20;14.50;;;7.47;;
80136;SDS011;69466;55.948;37.484;2023-04-24T00:29:46;20.10;;;7.53;;
80136;SDS011;69466;55.948;37.484;2023-04-24T00:32:12;18.30;;;9.30;;
80136;SDS011;69466;55.948;37.484;2023-04-24T00:34:39;15.13;;;6.85;;
80136;SDS011;69466;55.948;37.484;2023-04-24T00:37:05;15.80;;;8.20;;
80136;SDS011;69466;55.948;37.484;2023-04-24T00:39:31;21.05;;;7.43;;
80136;SDS011;69466;55.948;37.484;2023-04-24T00:41:57;13.05;;;6.47;;
80136;SDS011;69466;55.948;37.484;2023-04-24T00:44:24;14.20;;;7.82;;
80136;SDS011;69466;55.948;37.484;2023-04-24T00:46:50;14.95;;;7.82;;
80136;SDS011;69466;55.948;37.484;2023-04-24T00:49:20;15.48;;;7.60;;
80136;SDS011;69466;55.948;37.484;2023-04-24T00:51:48;12.82;;;6.75;;
80136;SDS011;69466;55.948;37.484;2023-04-24T00:54:15;17.20;;;7.45;;
80136;SDS011;69466;55.948;37.484;2023-04-24T00:56:41;14.73;;;7.05;;
80136;SDS011;69466;55.948;37.484;2023-04-24T00:59:09;20.17;;;8.32;;
80136;SDS011;69466;55.948;37.484;2023-04-24T01:01:35;17.42;;;8.15;;
80136;SDS011;69466;55.948;37.484;2023-04-24T01:04:02;15.25;;;8.60;;
80136;SDS011;69466;55.948;37.484;2023-04-24T01:06:29;16.73;;;8.18;;
80136;SDS011;69466;55.948;37.484;2023-04-24T01:08:56;18.67;;;8.35;;
80136;SDS011;69466;55.948;37.484;2023-04-24T01:11:24;15.45;;;7.03;;
80136;SDS011;69466;55.948;37.484;2023-04-24T01:13:52;14.98;;;7.28;;
80136;SDS011;69466;55.948;37.484;2023-04-24T01:16:18;21.42;;;8.32;;
80136;SDS011;69466;55.948;37.484;2023-04-24T01:18:46;11.68;;;7.25;;
80136;SDS011;69466;55.948;37.484;2023-04-24T01:21:13;13.57;;;7.55;;
80136;SDS011;69466;55.948;37.484;2023-04-24T01:23:43;16.02;;;7.68;;
80136;SDS011;69466;55.948;37.484;2023-04-24T01:26:10;16.02;;;7.85;;
80136;SDS011;69466;55.948;37.484;2023-04-24T01:28:36;13.68;;;7.88;;
80136;SDS011;69466;55.948;37.484;2023-04-24T01:31:04;15.45;;;7.00;;
80136;SDS011;69466;55.948;37.484;2023-04-24T01:33:31;17.25;;;7.50;;
80136;SDS011;69466;55.948;37.484;2023-04-24T01:35:57;16.17;;;8.18;;
80136;SDS011;69466;55.948;37.484;2023-04-24T01:38:23;16.88;;;6.80;;
80136;SDS011;69466;55.948;37.484;2023-04-24T01:40:49;18.80;;;7.45;;
80136;SDS011;69466;55.948;37.484;2023-04-24T01:43:16;14.10;;;7.70;;
80136;SDS011;69466;55.948;37.484;2023-04-24T01:45:43;21.27;;;8.45;;
80136;SDS011;69466;55.948;37.484;2023-04-24T01:48:09;15.98;;;8.00;;
80136;SDS011;69466;55.948;37.484;2023-04-24T01:50:35;14.77;;;7.82;;
80136;SDS011;69466;55.948;37.484;2023-04-24T01:53:02;12.93;;;7.82;;
80136;SDS011;69466;55.948;37.484;2023-04-24T01:55:28;14.07;;;7.45;;
80136;SDS011;69466;55.948;37.484;2023-04-24T01:57:55;13.15;;;8.70;;
80136;SDS011;69466;55.948;37.484;2023-04-24T02:00:22;13.13;;;7.85;;
80136;SDS011;69466;55.948;37.484;2023-04-24T02:02:48;14.43;;;7.75;;
80136;SDS011;69466;55.948;37.484;2023-04-24T02:05:14;13.13;;;7.10;;
80136;SDS011;69466;55.948;37.484;2023-04-24T02:07:40;13.02;;;7.78;;
80136;SDS011;69466;55.948;37.484;2023-04-24T02:10:07;14.32;;;7.32;;
80136;SDS011;69466;55.948;37.484;2023-04-24T02:12:34;17.23;;;8.57;;
80136;SDS011;69466;55.948;37.484;2023-04-24T02:15:01;14.60;;;8.30;;
80136;SDS011;69466;55.948;37.484;2023-04-24T02:17:29;14.50;;;7.50;;
80136;SDS011;69466;55.948;37.484;2023-04-24T02:19:56;11.88;;;7.05;;
80136;SDS011;69466;55.948;37.484;2023-04-24T02:22:22;15.82;;;7.35;;
80136;SDS011;69466;55.948;37.484;2023-04-24T02:24:48;14.00;;;7.22;;
80136;SDS011;69466;55.948;37.484;2023-04-24T02:27:16;13.90;;;8.10;;
80136;SDS011;69466;55.948;37.484;2023-04-24T02:29:42;11.52;;;7.15;;
80136;SDS011;69466;55.948;37.484;2023-04-24T02:32:08;19.30;;;7.63;;
80136;SDS011;69466;55.948;37.484;2023-04-24T02:34:37;13.57;;;7.28;;
80136;SDS011;69466;55.948;37.484;2023-04-24T02:37:03;14.25;;;7.18;;
80136;SDS011;69466;55.948;37.484;2023-04-24T02:39:29;21.15;;;7.40;;
80136;SDS011;69466;55.948;37.484;2023-04-24T02:41:55;16.73;;;7.88;;
80136;SDS011;69466;55.948;37.484;2023-04-24T02:44:21;14.00;;;7.35;;
80136;SDS011;69466;55.948;37.484;2023-04-24T02:46:48;12.57;;;7.80;;
80136;SDS011;69466;55.948;37.484;2023-04-24T02:49:15;15.65;;;7.50;;
80136;SDS011;69466;55.948;37.484;2023-04-24T02:51:41;15.25;;;7.45;;
80136;SDS011;69466;55.948;37.484;2023-04-24T02:54:08;12.45;;;6.75;;
80136;SDS011;69466;55.948;37.484;2023-04-24T02:56:35;14.50;;;6.97;;
80136;SDS011;69466;55.948;37.484;2023-04-24T02:59:02;18.17;;;9.10;;
80136;SDS011;69466;55.948;37.484;2023-04-24T03:01:28;17.13;;;8.13;;
80136;SDS011;69466;55.948;37.484;2023-04-24T03:03:55;12.93;;;7.80;;
80136;SDS011;69466;55.948;37.484;2023-04-24T03:06:21;19.27;;;8.90;;
80136;SDS011;69466;55.948;37.484;2023-04-24T03:08:46;15.18;;;8.18;;
80136;SDS011;69466;55.948;37.484;2023-04-24T03:11:12;15.73;;;8.65;;
80136;SDS011;69466;55.948;37.484;2023-04-24T03:13:40;16.88;;;9.30;;
80136;SDS011;69466;55.948;37.484;2023-04-24T03:16:06;23.48;;;9.18;;
80136;SDS011;69466;55.948;37.484;2023-04-24T03:18:32;20.45;;;8.48;;
80136;SDS011;69466;55.948;37.484;2023-04-24T03:20:58;19.88;;;8.63;;
80136;SDS011;69466;55.948;37.484;2023-04-24T03:23:24;18.33;;;9.30;;
80136;SDS011;69466;55.948;37.484;2023-04-24T03:25:50;20.85;;;10.18;;
80136;SDS011;69466;55.948;37.484;2023-04-24T03:28:18;16.38;;;9.10;;
80136;SDS011;69466;55.948;37.484;2023-04-24T03:30:51;20.73;;;8.77;;
80136;SDS011;69466;55.948;37.484;2023-04-24T03:33:19;20.63;;;9.50;;
80136;SDS011;69466;55.948;37.484;2023-04-24T03:35:56;18.05;;;10.50;;
80136;SDS011;69466;55.948;37.484;2023-04-24T03:38:22;24.20;;;11.13;;
80136;SDS011;69466;55.948;37.484;2023-04-24T03:40:58;15.70;;;9.45;;
80136;SDS011;69466;55.948;37.484;2023-04-24T03:43:45;18.63;;;9.73;;
80136;SDS011;69466;55.948;37.484;2023-04-24T03:46:11;25.90;;;11.32;;
80136;SDS011;69466;55.948;37.484;2023-04-24T03:48:42;25.17;;;11.15;;
80136;SDS011;69466;55.948;37.484;2023-04-24T03:51:08;16.70;;;10.23;;
80136;SDS011;69466;55.948;37.484;2023-04-24T03:53:36;30.70;;;11.27;;
80136;SDS011;69466;55.948;37.484;2023-04-24T03:56:02;23.58;;;12.15;;
80136;SDS011;69466;55.948;37.484;2023-04-24T03:58:30;23.10;;;12.93;;
80136;SDS011;69466;55.948;37.484;2023-04-24T04:00:56;21.00;;;11.98;;
80136;SDS011;69466;55.948;37.484;2023-04-24T04:03:49;26.33;;;12.77;;
80136;SDS011;69466;55.948;37.484;2023-04-24T04:06:19;24.90;;;12.07;;
80136;SDS011;69466;55.948;37.484;2023-04-24T04:08:47;19.23;;;11.57;;
80136;SDS011;69466;55.948;37.484;2023-04-24T04:11:13;28.02;;;12.70;;
80136;SDS011;69466;55.948;37.484;2023-04-24T04:13:39;22.77;;;11.40;;
80136;SDS011;69466;55.948;37.484;2023-04-24T04:16:05;17.40;;;9.55;;
80136;SDS011;69466;55.948;37.484;2023-04-24T04:18:31;16.80;;;10.48;;
80136;SDS011;69466;55.948;37.484;2023-04-24T04:20:57;18.85;;;10.00;;
80136;SDS011;69466;55.948;37.484;2023-04-24T04:23:24;18.48;;;10.75;;
80136;SDS011;69466;55.948;37.484;2023-04-24T04:26:15;20.88;;;9.68;;
80136;SDS011;69466;55.948;37.484;2023-04-24T04:29:04;16.67;;;9.68;;
80136;SDS011;69466;55.948;37.484;2023-04-24T04:31:34;17.92;;;9.48;;
80136;SDS011;69466;55.948;37.484;2023-04-24T04:34:05;17.45;;;10.32;;
80136;SDS011;69466;55.948;37.484;2023-04-24T04:36:33;15.35;;;8.63;;
80136;SDS011;69466;55.948;37.484;2023-04-24T04:39:13;15.32;;;8.77;;
80136;SDS011;69466;55.948;37.484;2023-04-24T04:41:54;16.42;;;8.70;;
80136;SDS011;69466;55.948;37.484;2023-04-24T04:44:22;14.75;;;8.75;;
80136;SDS011;69466;55.948;37.484;2023-04-24T04:46:50;10.10;;;8.00;;
80136;SDS011;69466;55.948;37.484;2023-04-24T04:49:24;14.38;;;8.77;;
80136;SDS011;69466;55.948;37.484;2023-04-24T04:51:50;13.15;;;8.75;;
80136;SDS011;69466;55.948;37.484;2023-04-24T04:54:17;16.20;;;9.00;;
80136;SDS011;69466;55.948;37.484;2023-04-24T04:56:43;16.45;;;8.07;;
80136;SDS011;69466;55.948;37.484;2023-04-24T04:59:08;13.10;;;8.48;;
80136;SDS011;69466;55.948;37.484;2023-04-24T05:01:37;13.13;;;7.97;;
80136;SDS011;69466;55.948;37.484;2023-04-24T05:04:05;12.23;;;8.32;;
80136;SDS011;69466;55.948;37.484;2023-04-24T05:06:31;12.82;;;8.07;;
80136;SDS011;69466;55.948;37.484;2023-04-24T05:08:58;15.35;;;8.38;;
80136;SDS011;69466;55.948;37.484;2023-04-24T05:11:34;11.23;;;7.82;;
80136;SDS011;69466;55.948;37.484;2023-04-24T05:14:01;15.27;;;8.18;;
80136;SDS011;69466;55.948;37.484;2023-04-24T05:16:38;12.95;;;7.90;;
80136;SDS011;69466;55.948;37.484;2023-04-24T05:19:06;12.07;;;7.90;;
80136;SDS011;69466;55.948;37.484;2023-04-24T05:21:35;13.70;;;9.07;;
80136;SDS011;69466;55.948;37.484;2023-04-24T05:24:01;12.85;;;9.68;;
80136;SDS011;69466;55.948;37.484;2023-04-24T05:26:46;12.48;;;8.38;;
80136;SDS011;69466;55.948;37.484;2023-04-24T05:29:14;14.68;;;8.13;;
80136;SDS011;69466;55.948;37.484;2023-04-24T05:31:41;14.55;;;8.05;;
80136;SDS011;69466;55.948;37.484;2023-04-24T05:34:07;13.75;;;8.63;;
80136;SDS011;69466;55.948;37.484;2023-04-24T05:36:37;12.85;;;8.13;;
80136;SDS011;69466;55.948;37.484;2023-04-24T05:39:03;13.55;;;7.90;;
80136;SDS011;69466;55.948;37.484;2023-04-24T05:41:30;15.63;;;8.52;;
80136;SDS011;69466;55.948;37.484;2023-04-24T05:43:57;14.25;;;8.75;;
80136;SDS011;69466;55.948;37.484;2023-04-24T05:46:23;14.68;;;8.50;;
80136;SDS011;69466;55.948;37.484;2023-04-24T05:48:49;16.02;;;9.20;;
80136;SDS011;69466;55.948;37.484;2023-04-24T05:51:15;14.10;;;7.85;;
80136;SDS011;69466;55.948;37.484;2023-04-24T05:53:41;13.77;;;7.78;;
80136;SDS011;69466;55.948;37.484;2023-04-24T05:56:06;11.38;;;7.15;;
80136;SDS011;69466;55.948;37.484;2023-04-24T05:58:33;16.17;;;8.52;;
80136;SDS011;69466;55.948;37.484;2023-04-24T06:00:59;11.18;;;7.38;;
80136;SDS011;69466;55.948;37.484;2023-04-24T06:03:27;12.27;;;7.32;;
80136;SDS011;69466;55.948;37.484;2023-04-24T06:05:53;11.32;;;6.80;;
80136;SDS011;69466;55.948;37.484;2023-04-24T06:08:20;12.35;;;6.93;;
80136;SDS011;69466;55.948;37.484;2023-04-24T06:10:47;11.80;;;7.78;;
80136;SDS011;69466;55.948;37.484;2023-04-24T06:13:14;10.45;;;6.15;;
80136;SDS011;69466;55.948;37.484;2023-04-24T06:15:49;13.82;;;7.93;;
80136;SDS011;69466;55.948;37.484;2023-04-24T06:18:20;11.02;;;7.05;;
80136;SDS011;69466;55.948;37.484;2023-04-24T06:20:47;13.05;;;8.20;;
80136;SDS011;69466;55.948;37.484;2023-04-24T06:23:13;12.20;;;7.15;;
80136;SDS011;69466;55.948;37.484;2023-04-24T06:25:39;12.35;;;7.22;;
80136;SDS011;69466;55.948;37.484;2023-04-24T06:28:05;9.45;;;6.90;;
80136;SDS011;69466;55.948;37.484;2023-04-24T06:30:31;19.15;;;8.15;;
80136;SDS011;69466;55.948;37.484;2023-04-24T06:32:57;11.85;;;6.93;;
80136;SDS011;69466;55.948;37.484;2023-04-24T06:35:23;13.35;;;6.88;;
80136;SDS011;69466;55.948;37.484;2023-04-24T06:37:49;17.63;;;6.72;;
80136;SDS011;69466;55.948;37.484;2023-04-24T06:40:14;12.55;;;6.32;;
80136;SDS011;69466;55.948;37.484;2023-04-24T06:42:40;12.88;;;6.78;;
80136;SDS011;69466;55.948;37.484;2023-04-24T06:45:08;13.60;;;5.72;;
80136;SDS011;69466;55.948;37.484;2023-04-24T06:47:34;9.80;;;5.93;;
80136;SDS011;69466;55.948;37.484;2023-04-24T06:50:00;10.38;;;5.75;;
80136;SDS011;69466;55.948;37.484;2023-04-24T06:52:26;7.90;;;5.10;;
80136;SDS011;69466;55.948;37.484;2023-04-24T06:54:52;13.48;;;5.47;;
80136;SDS011;69466;55.948;37.484;2023-04-24T06:57:24;10.02;;;5.60;;
80136;SDS011;69466;55.948;37.484;2023-04-24T06:59:50;14.20;;;5.70;;
80136;SDS011;69466;55.948;37.484;2023-04-24T07:02:16;10.43;;;5.72;;
80136;SDS011;69466;55.948;37.484;2023-04-24T07:04:42;9.63;;;5.18;;
80136;SDS011;69466;55.948;37.484;2023-04-24T07:07:08;11.50;;;5.05;;
80136;SDS011;69466;55.948;37.484;2023-04-24T07:09:38;8.32;;;5.28;;
80136;SDS011;69466;55.948;37.484;2023-04-24T07:12:06;13.35;;;4.93;;
80136;SDS011;69466;55.948;37.484;2023-04-24T07:14:32;9.52;;;5.25;;
80136;SDS011;69466;55.948;37.484;2023-04-24T07:16:58;10.05;;;5.35;;
80136;SDS011;69466;55.948;37.484;2023-04-24T07:19:24;11.00;;;5.05;;
80136;SDS011;69466;55.948;37.484;2023-04-24T07:21:50;10.00;;;5.05;;
80136;SDS011;69466;55.948;37.484;2023-04-24T07:24:16;9.48;;;5.50;;
80136;SDS011;69466;55.948;37.484;2023-04-24T07:26:41;7.45;;;4.75;;
80136;SDS011;69466;55.948;37.484;2023-04-24T07:29:12;15.38;;;4.95;;
80136;SDS011;69466;55.948;37.484;2023-04-24T07:31:38;10.25;;;4.60;;
80136;SDS011;69466;55.948;37.484;2023-04-24T07:34:06;10.45;;;5.07;;
80136;SDS011;69466;55.948;37.484;2023-04-24T07:36:32;7.00;;;4.30;;
80136;SDS011;69466;55.948;37.484;2023-04-24T07:38:58;8.77;;;4.30;;
80136;SDS011;69466;55.948;37.484;2023-04-24T07:41:24;7.72;;;4.68;;
80136;SDS011;69466;55.948;37.484;2023-04-24T07:43:49;9.18;;;4.65;;
80136;SDS011;69466;55.948;37.484;2023-04-24T07:46:16;7.30;;;4.30;;
80136;SDS011;69466;55.948;37.484;2023-04-24T07:48:42;8.40;;;4.13;;
80136;SDS011;69466;55.948;37.484;2023-04-24T07:51:08;10.05;;;4.43;;
80136;SDS011;69466;55.948;37.484;2023-04-24T07:53:36;9.20;;;4.20;;
80136;SDS011;69466;55.948;37.484;2023-04-24T07:56:02;9.15;;;3.92;;
80136;SDS011;69466;55.948;37.484;2023-04-24T07:58:27;8.13;;;4.20;;
80136;SDS011;69466;55.948;37.484;2023-04-24T08:00:53;11.23;;;4.55;;
80136;SDS011;69466;55.948;37.484;2023-04-24T08:03:19;8.32;;;3.75;;
80136;SDS011;69466;55.948;37.484;2023-04-24T08:05:45;8.75;;;3.70;;
80136;SDS011;69466;55.948;37.484;2023-04-24T08:08:11;7.25;;;3.97;;
80136;SDS011;69466;55.948;37.484;2023-04-24T08:10:37;8.45;;;4.25;;
80136;SDS011;69466;55.948;37.484;2023-04-24T08:13:02;7.00;;;4.28;;
80136;SDS011;69466;55.948;37.484;2023-04-24T08:15:28;6.00;;;3.40;;
80136;SDS011;69466;55.948;37.484;2023-04-24T08:17:54;5.55;;;3.67;;
80136;SDS011;69466;55.948;37.484;2023-04-24T08:20:20;8.43;;;3.60;;
80136;SDS011;69466;55.948;37.484;2023-04-24T08:22:46;9.40;;;4.53;;
80136;SDS011;69466;55.948;37.484;2023-04-24T08:25:14;8.30;;;4.22;;
80136;SDS011;69466;55.948;37.484;2023-04-24T08:27:39;7.50;;;4.53;;
80136;SDS011;69466;55.948;37.484;2023-04-24T08:30:06;6.57;;;4.03;;
80136;SDS011;69466;55.948;37.484;2023-04-24T08:32:32;6.82;;;4.50;;
80136;SDS011;69466;55.948;37.484;2023-04-24T08:34:58;8.30;;;4.43;;
80136;SDS011;69466;55.948;37.484;2023-04-24T08:37:26;8.25;;;4.47;;
80136;SDS011;69466;55.948;37.484;2023-04-24T08:39:52;8.52;;;4.72;;
80136;SDS011;69466;55.948;37.484;2023-04-24T08:42:19;10.27;;;4.25;;
80136;SDS011;69466;55.948;37.484;2023-04-24T08:44:46;9.40;;;4.65;;
80136;SDS011;69466;55.948;37.484;2023-04-24T08:47:13;10.30;;;4.78;;
80136;SDS011;69466;55.948;37.484;2023-04-24T08:49:40;9.82;;;4.05;;
80136;SDS011;69466;55.948;37.484;2023-04-24T08:52:06;12.07;;;4.78;;
80136;SDS011;69466;55.948;37.484;2023-04-24T08:54:33;9.57;;;4.22;;
80136;SDS011;69466;55.948;37.484;2023-04-24T08:57:02;9.95;;;3.85;;
80136;SDS011;69466;55.948;37.484;2023-04-24T08:59:31;8.85;;;4.05;;
80136;SDS011;69466;55.948;37.484;2023-04-24T09:01:59;6.32;;;4.10;;
80136;SDS011;69466;55.948;37.484;2023-04-24T09:04:25;9.68;;;4.95;;
80136;SDS011;69466;55.948;37.484;2023-04-24T09:06:56;7.75;;;4.13;;
80136;SDS011;69466;55.948;37.484;2023-04-24T09:09:23;10.25;;;4.95;;
80136;SDS011;69466;55.948;37.484;2023-04-24T09:11:50;9.38;;;4.97;;
80136;SDS011;69466;55.948;37.484;2023-04-24T09:14:19;16.42;;;5.07;;
80136;SDS011;69466;55.948;37.484;2023-04-24T09:16:45;8.70;;;4.32;;
80136;SDS011;69466;55.948;37.484;2023-04-24T09:19:12;8.02;;;4.75;;
80136;SDS011;69466;55.948;37.484;2023-04-24T09:21:37;7.78;;;4.82;;
80136;SDS011;69466;55.948;37.484;2023-04-24T09:24:04;8.55;;;4.80;;
80136;SDS011;69466;55.948;37.484;2023-04-24T09:26:34;10.88;;;4.70;;
80136;SDS011;69466;55.948;37.484;2023-04-24T09:29:02;9.43;;;5.05;;
80136;SDS011;69466;55.948;37.484;2023-04-24T09:31:29;9.63;;;4.35;;
80136;SDS011;69466;55.948;37.484;2023-04-24T09:33:56;9.18;;;4.95;;
80136;SDS011;69466;55.948;37.484;2023-04-24T09:36:33;7.07;;;4.10;;
80136;SDS011;69466;55.948;37.484;2023-04-24T09:39:04;11.02;;;5.07;;
80136;SDS011;69466;55.948;37.484;2023-04-24T09:41:31;7.93;;;3.90;;
80136;SDS011;69466;55.948;37.484;2023-04-24T09:44:10;9.90;;;5.00;;
80136;SDS011;69466;55.948;37.484;2023-04-24T09:46:37;9.65;;;4.68;;
80136;SDS011;69466;55.948;37.484;2023-04-24T09:49:10;8.35;;;4.95;;
80136;SDS011;69466;55.948;37.484;2023-04-24T09:51:38;6.32;;;4.20;;
80136;SDS011;69466;55.948;37.484;2023-04-24T09:54:16;7.00;;;4.90;;
80136;SDS011;69466;55.948;37.484;2023-04-24T09:56:43;7.47;;;5.00;;
80136;SDS011;69466;55.948;37.484;2023-04-24T09:59:11;9.00;;;4.20;;
80136;SDS011;69466;55.948;37.484;2023-04-24T10:01:39;9.93;;;4.90;;
80136;SDS011;69466;55.948;37.484;2023-04-24T10:06:43;11.52;;;4.97;;
80136;SDS011;69466;55.948;37.484;2023-04-24T10:09:09;9.50;;;5.45;;
80136;SDS011;69466;55.948;37.484;2023-04-24T10:11:42;6.80;;;4.03;;
80136;SDS011;69466;55.948;37.484;2023-04-24T10:14:17;11.13;;;5.03;;
80136;SDS011;69466;55.948;37.484;2023-04-24T10:16:44;9.10;;;4.82;;
80136;SDS011;69466;55.948;37.484;2023-04-24T10:19:12;8.98;;;4.18;;
80136;SDS011;69466;55.948;37.484;2023-04-24T10:21:39;9.25;;;5.22;;
80136;SDS011;69466;55.948;37.484;2023-04-24T10:24:15;7.72;;;4.78;;
80136;SDS011;69466;55.948;37.484;2023-04-24T10:26:44;7.53;;;4.57;;
80136;SDS011;69466;55.948;37.484;2023-04-24T10:29:11;8.80;;;4.43;;
80136;SDS011;69466;55.948;37.484;2023-04-24T10:31:39;9.93;;;4.35;;
80136;SDS011;69466;55.948;37.484;2023-04-24T10:34:05;10.13;;;4.30;;
80136;SDS011;69466;55.948;37.484;2023-04-24T10:36:34;10.48;;;4.68;;
80136;SDS011;69466;55.948;37.484;2023-04-24T10:39:02;10.85;;;4.53;;
80136;SDS011;69466;55.948;37.484;2023-04-24T10:41:33;8.43;;;4.30;;
80136;SDS011;69466;55.948;37.484;2023-04-24T10:46:33;6.55;;;4.28;;
80136;SDS011;69466;55.948;37.484;2023-04-24T10:49:01;9.80;;;4.32;;
80136;SDS011;69466;55.948;37.484;2023-04-24T10:57:45;7.03;;;4.40;;
80136;SDS011;69466;55.948;37.484;2023-04-24T10:59:46;7.78;;;4.80;;
80136;SDS011;69466;55.948;37.484;2023-04-24T11:02:14;7.32;;;3.92;;
80136;SDS011;69466;55.948;37.484;2023-04-24T11:04:41;7.68;;;4.10;;
80136;SDS011;69466;55.948;37.484;2023-04-24T11:07:11;7.45;;;4.55;;
80136;SDS011;69466;55.948;37.484;2023-04-24T11:09:37;7.45;;;4.32;;
80136;SDS011;69466;55.948;37.484;2023-04-24T11:12:09;9.35;;;4.03;;
80136;SDS011;69466;55.948;37.484;2023-04-24T11:17:28;11.15;;;5.03;;
80136;SDS011;69466;55.948;37.484;2023-04-24T11:19:55;7.97;;;4.13;;
80136;SDS011;69466;55.948;37.484;2023-04-24T11:22:28;9.13;;;4.35;;
80136;SDS011;69466;55.948;37.484;2023-04-24T11:24:59;8.68;;;4.78;;
80136;SDS011;69466;55.948;37.484;2023-04-24T11:27:39;9.95;;;4.38;;
80136;SDS011;69466;55.948;37.484;2023-04-24T11:30:06;7.63;;;4.28;;
80136;SDS011;69466;55.948;37.484;2023-04-24T11:35:03;7.68;;;4.28;;
80136;SDS011;69466;55.948;37.484;2023-04-24T11:40:02;8.95;;;5.43;;
80136;SDS011;69466;55.948;37.484;2023-04-24T11:42:33;11.35;;;4.10;;
80136;SDS011;69466;55.948;37.484;2023-04-24T11:45:00;6.68;;;4.18;;
80136;SDS011;69466;55.948;37.484;2023-04-24T11:47:31;8.27;;;3.95;;
80136;SDS011;69466;55.948;37.484;2023-04-24T11:49:59;7.53;;;4.18;;
80136;SDS011;69466;55.948;37.484;2023-04-24T11:52:26;7.75;;;4.55;;
80136;SDS011;69466;55.948;37.484;2023-04-24T11:54:53;8.75;;;4.28;;
80136;SDS011;69466;55.948;37.484;2023-04-24T11:57:19;10.23;;;4.65;;
80136;SDS011;69466;55.948;37.484;2023-04-24T11:59:46;7.13;;;4.45;;
80136;SDS011;69466;55.948;37.484;2023-04-24T12:02:25;7.45;;;3.90;;
80136;SDS011;69466;55.948;37.484;2023-04-24T12:04:52;8.95;;;4.45;;
80136;SDS011;69466;55.948;37.484;2023-04-24T12:07:21;8.57;;;5.07;;
80136;SDS011;69466;55.948;37.484;2023-04-24T12:09:48;8.52;;;4.25;;
80136;SDS011;69466;55.948;37.484;2023-04-24T12:12:16;9.82;;;4.93;;
80136;SDS011;69466;55.948;37.484;2023-04-24T12:15:06;11.43;;;4.97;;
80136;SDS011;69466;55.948;37.484;2023-04-24T12:17:33;8.23;;;4.68;;
80136;SDS011;69466;55.948;37.484;2023-04-24T12:20:05;9.07;;;4.10;;
80136;SDS011;69466;55.948;37.484;2023-04-24T12:25:25;8.52;;;3.97;;
80136;SDS011;69466;55.948;37.484;2023-04-24T12:28:08;7.82;;;4.13;;
80136;SDS011;69466;55.948;37.484;2023-04-24T12:30:42;10.65;;;5.15;;
80136;SDS011;69466;55.948;37.484;2023-04-24T12:33:17;11.27;;;4.55;;
80136;SDS011;69466;55.948;37.484;2023-04-24T12:35:44;11.32;;;3.67;;
80136;SDS011;69466;55.948;37.484;2023-04-24T12:38:13;8.57;;;3.85;;
80136;SDS011;69466;55.948;37.484;2023-04-24T12:40:40;8.98;;;4.47;;
80136;SDS011;69466;55.948;37.484;2023-04-24T12:43:18;8.35;;;4.40;;
80136;SDS011;69466;55.948;37.484;2023-04-24T12:45:48;6.93;;;4.18;;
80136;SDS011;69466;55.948;37.484;2023-04-24T12:48:13;8.40;;;4.18;;
80136;SDS011;69466;55.948;37.484;2023-04-24T12:50:39;8.73;;;4.65;;
80136;SDS011;69466;55.948;37.484;2023-04-24T12:53:06;10.38;;;5.05;;
80136;SDS011;69466;55.948;37.484;2023-04-24T12:55:33;9.65;;;3.67;;
80136;SDS011;69466;55.948;37.484;2023-04-24T12:58:01;7.50;;;3.80;;
80136;SDS011;69466;55.948;37.484;2023-04-24T13:00:28;8.00;;;3.90;;
80136;SDS011;69466;55.948;37.484;2023-04-24T13:02:54;7.53;;;4.05;;
80136;SDS011;69466;55.948;37.484;2023-04-24T13:05:20;7.55;;;4.03;;
80136;SDS011;69466;55.948;37.484;2023-04-24T13:07:46;8.30;;;3.40;;
80136;SDS011;69466;55.948;37.484;2023-04-24T13:10:13;6.00;;;3.92;;
80136;SDS011;69466;55.948;37.484;2023-04-24T13:12:39;7.32;;;3.45;;
80136;SDS011;69466;55.948;37.484;2023-04-24T13:15:05;7.43;;;3.80;;
80136;SDS011;69466;55.948;37.484;2023-04-24T13:17:32;9.82;;;3.83;;
80136;SDS011;69466;55.948;37.484;2023-04-24T13:19:58;10.68;;;4.47;;
80136;SDS011;69466;55.948;37.484;2023-04-24T13:22:24;6.53;;;3.63;;
80136;SDS011;69466;55.948;37.484;2023-04-24T13:24:50;9.15;;;4.05;;
80136;SDS011;69466;55.948;37.484;2023-04-24T13:27:16;6.78;;;3.40;;
80136;SDS011;69466;55.948;37.484;2023-04-24T13:29:43;10.00;;;4.18;;
80136;SDS011;69466;55.948;37.484;2023-04-24T13:32:09;12.23;;;4.63;;
80136;SDS011;69466;55.948;37.484;2023-04-24T13:34:35;8.20;;;4.07;;
80136;SDS011;69466;55.948;37.484;2023-04-24T13:37:02;6.82;;;3.97;;
80136;SDS011;69466;55.948;37.484;2023-04-24T13:39:29;8.15;;;4.55;;
80136;SDS011;69466;55.948;37.484;2023-04-24T13:41:55;7.03;;;3.47;;
80136;SDS011;69466;55.948;37.484;2023-04-24T13:44:21;8.57;;;3.58;;
80136;SDS011;69466;55.948;37.484;2023-04-24T13:46:50;7.28;;;3.92;;
80136;SDS011;69466;55.948;37.484;2023-04-24T13:49:19;7.72;;;3.47;;
80136;SDS011;69466;55.948;37.484;2023-04-24T13:51:46;7.88;;;3.85;;
80136;SDS011;69466;55.948;37.484;2023-04-24T13:54:12;6.28;;;3.30;;
80136;SDS011;69466;55.948;37.484;2023-04-24T13:56:41;9.60;;;3.65;;
80136;SDS011;69466;55.948;37.484;2023-04-24T13:59:07;8.05;;;4.00;;
80136;SDS011;69466;55.948;37.484;2023-04-24T14:01:33;6.65;;;3.55;;
80136;SDS011;69466;55.948;37.484;2023-04-24T14:03:59;7.55;;;3.83;;
80136;SDS011;69466;55.948;37.484;2023-04-24T14:06:25;7.47;;;3.40;;
80136;SDS011;69466;55.948;37.484;2023-04-24T14:08:51;11.15;;;6.43;;
80136;SDS011;69466;55.948;37.484;2023-04-24T14:11:18;7.43;;;4.13;;
80136;SDS011;69466;55.948;37.484;2023-04-24T14:13:44;8.25;;;3.40;;
80136;SDS011;69466;55.948;37.484;2023-04-24T14:16:11;7.00;;;3.80;;
80136;SDS011;69466;55.948;37.484;2023-04-24T14:18:37;7.07;;;3.80;;
80136;SDS011;69466;55.948;37.484;2023-04-24T14:21:03;8.68;;;3.97;;
80136;SDS011;69466;55.948;37.484;2023-04-24T14:23:29;7.78;;;3.40;;
80136;SDS011;69466;55.948;37.484;2023-04-24T14:25:56;6.30;;;3.28;;
80136;SDS011;69466;55.948;37.484;2023-04-24T14:28:22;10.13;;;3.38;;
80136;SDS011;69466;55.948;37.484;2023-04-24T14:30:48;10.85;;;3.95;;
80136;SDS011;69466;55.948;37.484;2023-04-24T14:33:15;8.82;;;4.05;;
80136;SDS011;69466;55.948;37.484;2023-04-24T14:35:41;7.38;;;3.92;;
80136;SDS011;69466;55.948;37.484;2023-04-24T14:38:08;6.88;;;4.25;;
80136;SDS011;69466;55.948;37.484;2023-04-24T14:40:34;7.50;;;3.70;;
80136;SDS011;69466;55.948;37.484;2023-04-24T14:43:00;8.10;;;4.00;;
80136;SDS011;69466;55.948;37.484;2023-04-24T14:45:27;7.72;;;3.40;;
80136;SDS011;69466;55.948;37.484;2023-04-24T14:47:53;6.22;;;3.40;;
80136;SDS011;69466;55.948;37.484;2023-04-24T14:50:19;7.05;;;3.42;;